createdAt,value
2018-07-26T00:00:08.530Z,25.29
2018-07-26T00:02:35.972Z,25.21
2018-07-26T00:05:03.532Z,25.13
2018-07-26T00:07:30.981Z,25.10
2018-07-26T00:09:58.386Z,25.09
2018-07-26T00:12:25.821Z,25.11
2018-07-26T00:14:53.354Z,25.17
2018-07-26T00:17:20.905Z,25.19
2018-07-26T00:19:48.366Z,25.12
2018-07-26T00:22:15.862Z,25.15
2018-07-26T00:24:43.313Z,25.12
2018-07-26T00:27:10.885Z,24.96
2018-07-26T00:29:38.347Z,24.65
2018-07-26T00:32:05.767Z,24.49
2018-07-26T00:34:33.235Z,24.38
2018-07-26T00:37:00.654Z,24.43
2018-07-26T00:39:28.084Z,24.47
2018-07-26T00:41:55.606Z,24.49
2018-07-26T00:44:23.054Z,24.40
2018-07-26T00:46:50.523Z,24.28
2018-07-26T00:49:17.996Z,24.20
2018-07-26T00:51:46.238Z,24.21
2018-07-26T00:54:13.856Z,24.23
2018-07-26T00:56:41.359Z,24.20
2018-07-26T00:59:08.851Z,24.16
2018-07-26T01:01:36.324Z,24.09
2018-07-26T01:04:03.779Z,24.07
2018-07-26T01:06:31.264Z,24.07
2018-07-26T01:08:58.773Z,23.98
2018-07-26T01:11:26.231Z,23.98
2018-07-26T01:13:53.666Z,24.01
2018-07-26T01:16:21.135Z,24.03
2018-07-26T01:18:48.590Z,24.11
2018-07-26T01:21:16.070Z,24.19
2018-07-26T01:23:43.521Z,24.22
2018-07-26T01:26:11.126Z,24.25
2018-07-26T01:28:38.546Z,24.28
2018-07-26T01:31:06.008Z,24.27
2018-07-26T01:33:33.546Z,24.30
2018-07-26T01:36:01.049Z,24.30
2018-07-26T01:38:28.508Z,24.25
2018-07-26T01:40:56.045Z,24.27
2018-07-26T01:43:23.531Z,24.29
2018-07-26T01:45:51.004Z,24.24
2018-07-26T01:48:18.456Z,24.20
2018-07-26T01:50:45.903Z,24.13
2018-07-26T01:53:13.376Z,24.06
2018-07-26T01:55:40.789Z,24.00
2018-07-26T01:58:08.222Z,23.86
2018-07-26T02:00:35.671Z,23.77
2018-07-26T02:03:03.123Z,23.71
2018-07-26T02:05:30.526Z,23.68
2018-07-26T02:07:57.950Z,23.63
2018-07-26T02:10:25.411Z,23.62
2018-07-26T02:12:52.855Z,23.54
2018-07-26T02:15:20.266Z,23.52
2018-07-26T02:17:47.724Z,23.47
2018-07-26T02:20:15.225Z,23.47
2018-07-26T02:22:42.678Z,23.50
2018-07-26T02:25:10.108Z,23.51
2018-07-26T02:27:37.648Z,23.53
2018-07-26T02:30:05.055Z,23.52
2018-07-26T02:32:32.478Z,23.54
2018-07-26T02:34:59.941Z,23.56
2018-07-26T02:37:27.415Z,23.55
2018-07-26T02:39:54.893Z,23.51
2018-07-26T02:42:23.071Z,23.48
2018-07-26T02:44:50.557Z,23.45
2018-07-26T02:47:17.999Z,23.41
2018-07-26T02:49:45.616Z,23.38
2018-07-26T02:52:13.176Z,23.27
2018-07-26T02:54:40.757Z,23.14
2018-07-26T02:57:08.303Z,23.16
2018-07-26T02:59:35.861Z,23.20
2018-07-26T03:02:03.369Z,23.21
2018-07-26T03:04:30.828Z,23.15
2018-07-26T03:06:58.303Z,23.10
2018-07-26T03:09:25.768Z,23.09
2018-07-26T03:11:53.260Z,23.05
2018-07-26T03:14:20.747Z,23.05
2018-07-26T03:16:48.283Z,23.11
2018-07-26T03:19:15.917Z,23.12
2018-07-26T03:21:43.322Z,23.16
2018-07-26T03:24:10.796Z,23.11
2018-07-26T03:26:38.280Z,23.10
2018-07-26T03:29:05.749Z,23.08
2018-07-26T03:31:33.198Z,23.07
2018-07-26T03:34:00.676Z,23.11
2018-07-26T03:36:28.073Z,23.12
2018-07-26T03:38:55.578Z,23.12
2018-07-26T03:41:23.055Z,23.11
2018-07-26T03:43:50.550Z,23.05
2018-07-26T03:46:17.977Z,23.02
2018-07-26T03:48:45.454Z,22.94
2018-07-26T03:51:12.971Z,22.67
2018-07-26T03:53:40.461Z,22.65
2018-07-26T03:56:07.913Z,22.66
2018-07-26T03:58:35.503Z,22.72
2018-07-26T04:01:02.951Z,22.75
2018-07-26T04:03:30.443Z,22.75
2018-07-26T04:05:57.870Z,22.75
2018-07-26T04:08:25.326Z,22.75
2018-07-26T04:10:52.803Z,22.68
2018-07-26T04:13:20.268Z,22.55
2018-07-26T04:15:47.757Z,22.48
2018-07-26T04:18:15.351Z,22.50
2018-07-26T04:20:42.820Z,22.55
2018-07-26T04:23:10.295Z,22.59
2018-07-26T04:25:37.742Z,22.65
2018-07-26T04:28:05.169Z,22.70
2018-07-26T04:30:32.711Z,22.72
2018-07-26T04:33:00.230Z,22.74
2018-07-26T04:35:27.658Z,22.79
2018-07-26T04:37:55.089Z,22.82
2018-07-26T04:40:22.556Z,22.85
2018-07-26T04:42:50.045Z,22.87
2018-07-26T04:45:17.502Z,22.88
2018-07-26T04:47:45.028Z,22.92
2018-07-26T04:50:12.543Z,22.88
2018-07-26T04:52:39.981Z,22.81
2018-07-26T04:55:07.420Z,22.76
2018-07-26T04:57:34.896Z,22.70
2018-07-26T05:00:02.505Z,22.72
2018-07-26T05:02:29.993Z,22.69
2018-07-26T05:04:57.499Z,22.69
2018-07-26T05:07:24.993Z,22.77
2018-07-26T05:09:52.627Z,22.72
2018-07-26T05:12:20.038Z,22.87
2018-07-26T05:14:47.562Z,22.97
2018-07-26T05:17:15.066Z,23.07
2018-07-26T05:19:42.619Z,23.15
2018-07-26T05:22:10.142Z,23.28
2018-07-26T05:24:37.660Z,23.44
2018-07-26T05:27:05.559Z,23.57
2018-07-26T05:29:33.076Z,23.70
2018-07-26T05:32:00.541Z,23.84
2018-07-26T05:34:27.949Z,23.98
2018-07-26T05:36:55.436Z,24.01
2018-07-26T05:39:22.881Z,24.08
2018-07-26T05:41:50.407Z,24.19
2018-07-26T05:44:17.827Z,24.27
2018-07-26T05:46:45.234Z,24.38
2018-07-26T05:49:12.758Z,24.53
2018-07-26T05:51:40.211Z,24.63
2018-07-26T05:54:07.698Z,24.75
2018-07-26T05:56:35.227Z,24.91
2018-07-26T05:59:02.743Z,24.97
2018-07-26T06:01:30.284Z,25.04
2018-07-26T06:03:57.743Z,25.12
2018-07-26T06:06:25.191Z,25.12
2018-07-26T06:08:52.660Z,25.22
2018-07-26T06:11:20.182Z,25.27
2018-07-26T06:13:47.670Z,25.41
2018-07-26T06:16:15.557Z,25.48
2018-07-26T06:18:43.046Z,25.52
2018-07-26T06:21:10.482Z,25.48
2018-07-26T06:23:37.951Z,25.53
2018-07-26T06:26:05.618Z,25.65
2018-07-26T06:28:33.168Z,25.48
2018-07-26T06:31:00.641Z,25.42
2018-07-26T06:33:28.148Z,25.56
2018-07-26T06:35:55.826Z,25.69
2018-07-26T06:38:23.246Z,25.83
2018-07-26T06:40:50.713Z,26.02
2018-07-26T06:43:18.141Z,26.20
2018-07-26T06:45:45.658Z,26.30
2018-07-26T06:48:13.227Z,26.40
2018-07-26T06:50:40.744Z,26.59
2018-07-26T06:53:08.216Z,26.83
2018-07-26T06:55:35.658Z,26.95
2018-07-26T06:58:03.118Z,26.93
2018-07-26T07:00:30.602Z,27.05
2018-07-26T07:02:58.052Z,27.18
2018-07-26T07:05:25.518Z,27.08
2018-07-26T07:07:53.000Z,27.15
2018-07-26T07:10:20.541Z,27.50
2018-07-26T07:12:47.953Z,27.67
2018-07-26T07:15:15.409Z,27.93
2018-07-26T07:17:42.858Z,27.98
2018-07-26T07:20:10.325Z,28.25
2018-07-26T07:22:37.799Z,28.47
2018-07-26T07:25:05.287Z,28.49
2018-07-26T07:27:32.706Z,28.66
2018-07-26T07:30:00.157Z,28.71
2018-07-26T07:32:27.642Z,28.83
2018-07-26T07:34:56.072Z,28.86
2018-07-26T07:37:23.716Z,29.06
2018-07-26T07:39:51.192Z,29.51
2018-07-26T07:42:18.738Z,29.55
2018-07-26T07:44:46.223Z,29.06
2018-07-26T07:47:13.687Z,29.19
2018-07-26T07:49:41.158Z,29.42
2018-07-26T07:52:08.614Z,29.43
2018-07-26T07:54:36.094Z,29.35
2018-07-26T07:57:03.615Z,29.35
2018-07-26T07:59:31.170Z,29.90
2018-07-26T08:01:58.531Z,30.55
2018-07-26T08:04:26.003Z,30.86
2018-07-26T08:06:53.625Z,30.79
2018-07-26T08:09:21.058Z,30.95
2018-07-26T08:11:48.540Z,30.93
2018-07-26T08:14:16.110Z,30.44
2018-07-26T08:16:43.559Z,30.28
2018-07-26T08:19:11.016Z,30.52
2018-07-26T08:21:38.846Z,30.83
2018-07-26T08:24:06.308Z,30.99
2018-07-26T08:26:33.794Z,30.59
2018-07-26T08:29:01.257Z,30.45
2018-07-26T08:31:28.734Z,30.70
2018-07-26T08:33:56.577Z,30.54
2018-07-26T08:36:24.667Z,30.62
2018-07-26T08:38:52.114Z,30.77
2018-07-26T08:41:19.571Z,30.84
2018-07-26T08:43:47.077Z,30.77
2018-07-26T08:46:14.487Z,30.78
2018-07-26T08:48:41.514Z,30.92
2018-07-26T08:51:08.634Z,30.96
2018-07-26T08:53:36.136Z,31.68
2018-07-26T08:56:03.178Z,32.08
2018-07-26T08:58:30.630Z,31.82
2018-07-26T09:00:58.044Z,31.51
2018-07-26T09:03:25.527Z,31.44
2018-07-26T09:05:52.930Z,31.27
2018-07-26T09:08:20.027Z,31.32
2018-07-26T09:10:47.023Z,31.05
2018-07-26T09:13:13.971Z,31.42
2018-07-26T09:15:41.445Z,31.18
2018-07-26T09:18:08.999Z,31.03
2018-07-26T09:20:36.475Z,30.90
2018-07-26T09:23:03.923Z,30.79
2018-07-26T09:25:31.569Z,30.79
2018-07-26T09:27:59.002Z,30.62
2018-07-26T09:30:26.544Z,30.81
2018-07-26T09:32:54.033Z,31.33
2018-07-26T09:35:21.568Z,31.68
2018-07-26T09:37:49.130Z,31.42
2018-07-26T09:40:16.610Z,31.22
2018-07-26T09:42:44.267Z,31.25
2018-07-26T09:45:11.723Z,31.40
2018-07-26T09:47:40.020Z,31.63
2018-07-26T09:50:07.589Z,31.71
2018-07-26T09:52:35.088Z,31.64
2018-07-26T09:55:02.599Z,31.38
2018-07-26T09:57:30.017Z,31.34
2018-07-26T09:59:57.475Z,31.55
2018-07-26T10:02:24.956Z,31.87
2018-07-26T10:04:52.476Z,31.83
2018-07-26T10:07:20.126Z,31.65
2018-07-26T10:09:47.609Z,31.45
2018-07-26T10:12:15.183Z,31.47
2018-07-26T10:14:42.615Z,31.47
2018-07-26T10:17:10.285Z,31.64
2018-07-26T10:19:37.792Z,31.82
2018-07-26T10:22:05.261Z,31.88
2018-07-26T10:24:32.797Z,31.84
2018-07-26T10:27:00.399Z,32.11
2018-07-26T10:29:27.929Z,32.18
2018-07-26T10:31:55.525Z,32.50
2018-07-26T10:34:23.381Z,32.51
2018-07-26T10:36:50.835Z,32.29
2018-07-26T10:39:18.443Z,32.49
2018-07-26T10:41:46.001Z,32.70
2018-07-26T10:44:13.466Z,33.00
2018-07-26T10:46:40.960Z,33.03
2018-07-26T10:49:08.408Z,32.60
2018-07-26T10:51:35.997Z,32.70
2018-07-26T10:54:03.461Z,32.90
2018-07-26T10:56:31.117Z,32.74
2018-07-26T10:58:58.678Z,32.45
2018-07-26T11:01:26.148Z,32.45
2018-07-26T11:03:53.778Z,32.39
2018-07-26T11:06:21.443Z,32.48
2018-07-26T11:08:49.000Z,32.53
2018-07-26T11:11:16.657Z,32.85
2018-07-26T11:13:44.166Z,33.13
2018-07-26T11:16:11.590Z,33.23
2018-07-26T11:18:39.038Z,33.14
2018-07-26T11:21:06.527Z,33.00
2018-07-26T11:23:33.970Z,33.32
2018-07-26T11:26:01.471Z,33.41
2018-07-26T11:28:28.935Z,33.17
2018-07-26T11:30:56.584Z,33.30
2018-07-26T11:33:24.091Z,33.21
2018-07-26T11:35:51.549Z,33.33
2018-07-26T11:38:19.093Z,33.42
2018-07-26T11:40:46.532Z,33.32
2018-07-26T11:43:13.962Z,33.37
2018-07-26T11:45:41.563Z,33.45
2018-07-26T11:48:09.135Z,33.48
2018-07-26T11:50:36.619Z,33.66
2018-07-26T11:53:04.077Z,33.72
2018-07-26T11:55:31.563Z,33.60
2018-07-26T11:57:59.220Z,33.59
2018-07-26T12:00:26.666Z,33.90
2018-07-26T12:02:54.134Z,33.89
2018-07-26T12:05:21.626Z,34.16
2018-07-26T12:07:49.313Z,34.34
2018-07-26T12:10:16.819Z,34.38
2018-07-26T12:12:44.253Z,34.04
2018-07-26T12:15:11.734Z,33.96
2018-07-26T12:17:39.171Z,34.28
2018-07-26T12:20:06.750Z,34.42
2018-07-26T12:22:34.183Z,34.42
2018-07-26T12:25:01.622Z,34.59
2018-07-26T12:27:29.049Z,34.72
2018-07-26T12:29:56.642Z,35.02
2018-07-26T12:32:24.054Z,34.87
2018-07-26T12:34:51.530Z,34.94
2018-07-26T12:37:19.044Z,34.99
2018-07-26T12:39:46.607Z,34.95
2018-07-26T12:42:14.143Z,34.79
2018-07-26T12:44:41.634Z,34.92
2018-07-26T12:47:09.128Z,35.50
2018-07-26T12:49:36.534Z,35.62
2018-07-26T12:52:03.580Z,35.69
2018-07-26T12:54:31.000Z,36.01
2018-07-26T12:56:58.459Z,35.65
2018-07-26T12:59:25.900Z,35.12
2018-07-26T13:01:52.921Z,35.01
2018-07-26T13:04:19.927Z,35.22
2018-07-26T13:06:47.061Z,35.15
2018-07-26T13:09:14.556Z,35.28
2018-07-26T13:11:42.084Z,35.40
2018-07-26T13:14:09.605Z,35.38
2018-07-26T13:16:37.096Z,35.31
2018-07-26T13:19:04.528Z,35.58
2018-07-26T13:21:31.551Z,35.68
2018-07-26T13:23:58.597Z,35.75
2018-07-26T13:26:25.585Z,36.05
2018-07-26T13:28:53.098Z,36.40
2018-07-26T13:31:20.569Z,36.33
2018-07-26T13:33:48.077Z,36.28
2018-07-26T13:36:15.608Z,36.40
2018-07-26T13:38:43.136Z,36.22
2018-07-26T13:41:10.598Z,35.92
2018-07-26T13:43:38.071Z,35.84
2018-07-26T13:46:05.531Z,36.02
2018-07-26T13:48:33.106Z,36.02
2018-07-26T13:51:00.562Z,35.82
2018-07-26T13:53:28.049Z,35.57
2018-07-26T13:55:55.593Z,35.57
2018-07-26T13:58:23.137Z,35.47
2018-07-26T14:00:50.767Z,35.47
2018-07-26T14:03:18.244Z,35.67
2018-07-26T14:05:45.715Z,36.24
2018-07-26T14:08:13.379Z,36.34
2018-07-26T14:10:40.798Z,36.61
2018-07-26T14:13:08.311Z,36.56
2018-07-26T14:15:35.808Z,36.24
2018-07-26T14:18:03.309Z,36.18
2018-07-26T14:20:30.802Z,36.07
2018-07-26T14:22:58.290Z,35.87
2018-07-26T14:25:25.744Z,36.15
2018-07-26T14:27:53.286Z,36.20
2018-07-26T14:30:20.747Z,35.92
2018-07-26T14:32:48.248Z,35.55
2018-07-26T14:35:15.723Z,35.59
2018-07-26T14:37:43.296Z,35.83
2018-07-26T14:40:10.787Z,35.95
2018-07-26T14:42:38.197Z,36.04
2018-07-26T14:45:05.754Z,36.18
2018-07-26T14:47:33.246Z,36.13
2018-07-26T14:50:00.728Z,35.98
2018-07-26T14:52:28.225Z,35.98
2018-07-26T14:54:56.087Z,36.28
2018-07-26T14:57:23.664Z,36.45
2018-07-26T14:59:51.181Z,36.14
2018-07-26T15:02:18.771Z,36.21
2018-07-26T15:04:46.229Z,36.24
2018-07-26T15:07:13.725Z,36.32
2018-07-26T15:09:41.284Z,36.45
2018-07-26T15:12:08.844Z,36.39
2018-07-26T15:14:36.336Z,36.30
2018-07-26T15:17:03.783Z,36.42
2018-07-26T15:19:31.285Z,36.55
2018-07-26T15:21:59.561Z,36.58
2018-07-26T15:24:27.282Z,36.35
2018-07-26T15:26:54.692Z,36.35
2018-07-26T15:29:22.287Z,36.59
2018-07-26T15:31:49.836Z,36.64
2018-07-26T15:34:17.309Z,36.38
2018-07-26T15:36:44.752Z,36.31
2018-07-26T15:39:12.203Z,36.16
2018-07-26T15:41:39.760Z,36.07
2018-07-26T15:44:07.567Z,36.13
2018-07-26T15:46:35.023Z,36.32
2018-07-26T15:49:02.442Z,36.37
2018-07-26T15:51:29.956Z,36.37
2018-07-26T15:53:57.435Z,36.44
2018-07-26T15:56:24.971Z,36.40
2018-07-26T15:58:52.575Z,36.45
2018-07-26T16:01:20.015Z,36.49
2018-07-26T16:03:47.472Z,36.53
2018-07-26T16:06:14.931Z,36.37
2018-07-26T16:08:42.382Z,36.32
2018-07-26T16:11:09.837Z,36.24
2018-07-26T16:13:37.327Z,36.19
2018-07-26T16:16:04.830Z,36.10
2018-07-26T16:18:32.408Z,36.04
2018-07-26T16:20:59.843Z,36.02
2018-07-26T16:23:27.347Z,36.01
2018-07-26T16:25:55.423Z,36.04
2018-07-26T16:28:23.012Z,36.06
2018-07-26T16:30:50.520Z,36.06
2018-07-26T16:33:18.028Z,35.92
2018-07-26T16:35:45.557Z,35.83
2018-07-26T16:38:12.988Z,35.93
2018-07-26T16:40:40.484Z,35.89
2018-07-26T16:43:08.182Z,35.84
2018-07-26T16:45:35.657Z,35.89
2018-07-26T16:48:03.157Z,35.95
2018-07-26T16:50:30.617Z,35.97
2018-07-26T16:52:58.058Z,35.91
2018-07-26T16:55:25.520Z,35.94
2018-07-26T16:57:52.939Z,35.86
2018-07-26T17:00:20.427Z,35.71
2018-07-26T17:02:47.988Z,35.59
2018-07-26T17:05:15.490Z,35.57
2018-07-26T17:07:42.998Z,35.69
2018-07-26T17:10:10.503Z,35.66
2018-07-26T17:12:37.974Z,35.73
2018-07-26T17:15:05.525Z,35.69
2018-07-26T17:17:32.958Z,35.59
2018-07-26T17:20:00.487Z,35.54
2018-07-26T17:22:28.101Z,35.50
2018-07-26T17:24:55.617Z,35.51
2018-07-26T17:27:23.062Z,35.51
2018-07-26T17:29:50.551Z,35.43
2018-07-26T17:32:18.014Z,35.46
2018-07-26T17:34:45.481Z,35.37
2018-07-26T17:37:13.075Z,35.33
2018-07-26T17:39:40.656Z,35.13
2018-07-26T17:42:08.098Z,34.97
2018-07-26T17:44:35.654Z,34.80
2018-07-26T17:47:03.606Z,34.64
2018-07-26T17:49:31.094Z,34.52
2018-07-26T17:51:58.564Z,34.58
2018-07-26T17:54:26.021Z,34.70
2018-07-26T17:56:53.595Z,34.79
2018-07-26T17:59:21.031Z,34.93
2018-07-26T18:01:48.454Z,34.96
2018-07-26T18:04:16.029Z,34.85
2018-07-26T18:06:43.447Z,34.76
2018-07-26T18:09:10.935Z,34.65
2018-07-26T18:11:38.481Z,34.53
2018-07-26T18:14:05.964Z,34.49
2018-07-26T18:16:33.466Z,34.31
2018-07-26T18:19:00.874Z,34.22
2018-07-26T18:21:28.336Z,34.04
2018-07-26T18:23:55.812Z,33.96
2018-07-26T18:26:23.371Z,34.05
2018-07-26T18:28:50.816Z,33.98
2018-07-26T18:31:18.276Z,33.87
2018-07-26T18:33:45.754Z,33.68
2018-07-26T18:36:13.183Z,33.50
2018-07-26T18:38:40.598Z,33.42
2018-07-26T18:41:08.137Z,33.36
2018-07-26T18:43:35.658Z,33.20
2018-07-26T18:46:03.121Z,32.89
2018-07-26T18:48:30.568Z,32.74
2018-07-26T18:50:57.982Z,32.60
2018-07-26T18:53:25.455Z,32.56
2018-07-26T18:55:52.855Z,32.46
2018-07-26T18:58:20.497Z,32.38
2018-07-26T19:00:47.940Z,32.10
2018-07-26T19:03:15.435Z,31.83
2018-07-26T19:05:43.071Z,31.65
2018-07-26T19:08:10.673Z,31.49
2018-07-26T19:10:38.189Z,31.43
2018-07-26T19:13:05.633Z,31.36
2018-07-26T19:15:33.216Z,31.28
2018-07-26T19:18:00.867Z,31.25
2018-07-26T19:20:28.324Z,31.18
2018-07-26T19:22:55.819Z,31.06
2018-07-26T19:25:23.251Z,30.86
2018-07-26T19:27:50.708Z,30.72
2018-07-26T19:30:19.288Z,30.58
2018-07-26T19:32:46.803Z,30.46
2018-07-26T19:35:14.287Z,30.31
2018-07-26T19:37:41.771Z,30.29
2018-07-26T19:40:09.297Z,30.26
2018-07-26T19:42:36.841Z,30.26
2018-07-26T19:45:05.363Z,30.24
2018-07-26T19:47:32.772Z,30.25
2018-07-26T19:50:00.299Z,30.21
2018-07-26T19:52:27.755Z,30.13
2018-07-26T19:54:55.159Z,29.99
2018-07-26T19:57:22.655Z,29.82
2018-07-26T19:59:50.157Z,29.75
2018-07-26T20:02:17.793Z,29.71
2018-07-26T20:04:45.285Z,29.69
2018-07-26T20:07:12.794Z,29.61
2018-07-26T20:09:40.320Z,29.50
2018-07-26T20:12:08.023Z,29.50
2018-07-26T20:14:35.544Z,29.52
2018-07-26T20:17:03.046Z,29.46
2018-07-26T20:19:30.494Z,29.38
2018-07-26T20:21:57.977Z,29.33
2018-07-26T20:24:25.525Z,29.35
2018-07-26T20:26:52.999Z,29.40
2018-07-26T20:29:20.480Z,29.40
2018-07-26T20:31:47.897Z,29.47
2018-07-26T20:34:16.208Z,29.50
2018-07-26T20:36:43.687Z,29.49
2018-07-26T20:39:11.252Z,29.42
2018-07-26T20:41:38.703Z,29.43
2018-07-26T20:44:06.122Z,29.42
2018-07-26T20:46:33.578Z,29.38
2018-07-26T20:49:01.122Z,29.29
2018-07-26T20:51:28.580Z,29.19
2018-07-26T20:53:56.069Z,29.16
2018-07-26T20:56:23.659Z,29.08
2018-07-26T20:58:51.123Z,29.01
2018-07-26T21:01:18.704Z,28.88
2018-07-26T21:03:46.136Z,28.82
2018-07-26T21:06:13.598Z,28.76
2018-07-26T21:08:41.068Z,28.79
2018-07-26T21:11:08.478Z,28.79
2018-07-26T21:13:35.947Z,28.70
2018-07-26T21:16:03.352Z,28.69
2018-07-26T21:18:30.938Z,28.66
2018-07-26T21:20:58.413Z,28.63
2018-07-26T21:23:25.925Z,28.63
2018-07-26T21:25:53.491Z,28.69
2018-07-26T21:28:20.934Z,28.68
2018-07-26T21:30:48.378Z,28.66
2018-07-26T21:33:15.884Z,28.67
2018-07-26T21:35:43.303Z,28.66
2018-07-26T21:38:10.818Z,28.66
2018-07-26T21:40:38.301Z,28.68
2018-07-26T21:43:05.700Z,28.62
2018-07-26T21:45:33.160Z,28.50
2018-07-26T21:48:00.803Z,28.38
2018-07-26T21:50:28.342Z,28.23
2018-07-26T21:52:55.839Z,28.13
2018-07-26T21:55:23.350Z,28.08
2018-07-26T21:57:51.098Z,28.01
2018-07-26T22:00:18.596Z,28.03
2018-07-26T22:02:47.829Z,28.08
2018-07-26T22:05:15.401Z,28.08
2018-07-26T22:07:43.005Z,28.06
2018-07-26T22:10:10.523Z,28.03
2018-07-26T22:12:38.018Z,27.94
2018-07-26T22:15:05.550Z,27.89
2018-07-26T22:17:33.002Z,27.86
2018-07-26T22:20:00.441Z,27.78
2018-07-26T22:22:27.878Z,27.68
2018-07-26T22:24:55.382Z,27.66
2018-07-26T22:27:22.817Z,27.60
2018-07-26T22:29:50.280Z,27.46
2018-07-26T22:32:17.734Z,27.31
2018-07-26T22:34:45.197Z,27.25
2018-07-26T22:37:12.635Z,27.16
2018-07-26T22:39:40.142Z,27.09
2018-07-26T22:42:07.623Z,27.09
2018-07-26T22:44:35.122Z,27.07
2018-07-26T22:47:02.599Z,27.06
2018-07-26T22:49:30.144Z,27.05
2018-07-26T22:51:57.542Z,27.04
2018-07-26T22:54:25.032Z,27.04
2018-07-26T22:56:52.528Z,27.06
2018-07-26T22:59:20.007Z,27.04
2018-07-26T23:01:47.474Z,27.04
2018-07-26T23:04:14.980Z,26.96
2018-07-26T23:06:42.495Z,26.91
2018-07-26T23:09:09.943Z,26.92
2018-07-26T23:11:37.375Z,26.86
2018-07-26T23:14:04.841Z,26.77
2018-07-26T23:16:32.299Z,26.75
2018-07-26T23:18:59.753Z,26.75
2018-07-26T23:21:27.231Z,26.75
2018-07-26T23:23:54.710Z,26.67
2018-07-26T23:26:22.113Z,26.70
2018-07-26T23:28:49.550Z,26.66
2018-07-26T23:31:16.957Z,26.61
2018-07-26T23:33:44.456Z,26.60
2018-07-26T23:36:11.901Z,26.60
2018-07-26T23:38:39.403Z,26.59
2018-07-26T23:41:06.882Z,26.55
2018-07-26T23:43:34.363Z,26.48
2018-07-26T23:46:01.838Z,26.35
2018-07-26T23:48:29.285Z,26.28
2018-07-26T23:50:56.740Z,26.22
2018-07-26T23:53:24.194Z,26.15
2018-07-26T23:55:51.636Z,26.14
2018-07-26T23:58:19.114Z,26.17
